Darstellungsparameter: Aktuell verwendete Einstellungen:
Skalierung der Graphiken ... ?
xyx+y,   Skalierungsfaktor:      Skalierung: Modus: x, Faktor: 1
Darstellungszeitraum ... ?
Vom - - bis: - -   Zeitraum: 07.11.2020 - 09.11.2020
Min/Max/Avg-Anzeige ... ?
Zeige MMA aktuell
Zeige MMA Monat
Zeige MMA alles
Zeige --A aktuell
Zeige --A Monat
Zeige --A alles
Keine MMA-Anzeige
MMA:
Average (ber die Originaldaten)
MMA-Basis: 07.11.2020 - 09.11.2020
Quicknavigation für Darstellung... ?
Tage:      1T, 2T, 3T, 5T -1T -2T -3T -5T +1T +2T +3T +5T
Wochen: 1W, 2W, 3W -1W -2W -3W +1W +2W +3W
Monate: 1M, 3M, 6M -1M -3M -6M +1M +3M +6M
Jahre:    1J, 3J, 5J, 10J -1J -3J -5J -10J +1J +3J +5J +10J
Nutze für die Darstellung ... ?
Originaldaten oder Mittelwerte auf ...
Stundenbasis Tagesbasis Wochenbasis
Monatsbasis Jahresbasis      Datenbasis: Original-Daten
Darstellen als:
Statistik (Auto) Statistik J:M      Darstellung:
Zur Graphik,    zurück zur Übersicht aller Sensoren.
 
Tabellarische Datenbersicht: ?
 
Sensor: Nr:Datum:Temp:Abs-Feuchte:Windchill:Wind:
Aussen-T/F 1 07-11-2020 00:00:00 0.8 C 4.91 g/m*3 0.8 C 0 km/h
2 07-11-2020 00:05:00 0.8 C 4.91 g/m*3 0.8 C 0 km/h
3 07-11-2020 00:10:00 0.8 C 4.91 g/m*3 0.8 C 0 km/h
4 07-11-2020 00:15:00 0.8 C 4.91 g/m*3 0.8 C 0 km/h
5 07-11-2020 00:20:00 0.8 C 4.91 g/m*3 0.8 C 0 km/h
6 07-11-2020 00:25:00 0.8 C 4.91 g/m*3 0.8 C 0 km/h
7 07-11-2020 00:30:00 0.8 C 4.91 g/m*3 0.8 C 0 km/h
8 07-11-2020 00:35:00 0.8 C 4.91 g/m*3 0.8 C 0 km/h
9 07-11-2020 00:40:00 0.8 C 4.91 g/m*3 0.8 C 0 km/h
10 07-11-2020 00:45:00 0.8 C 4.91 g/m*3 0.8 C 0 km/h
11 07-11-2020 00:50:00 0.8 C 4.91 g/m*3 0.8 C 0 km/h
12 07-11-2020 00:55:00 0.7 C 4.88 g/m*3 0.7 C 0 km/h
13 07-11-2020 01:00:00 0.7 C 4.88 g/m*3 0.7 C 0 km/h
14 07-11-2020 01:05:00 0.7 C 4.88 g/m*3 0.7 C 0 km/h
15 07-11-2020 01:10:00 0.6 C 4.85 g/m*3 0.6 C 0 km/h
16 07-11-2020 01:15:00 0.6 C 4.85 g/m*3 0.6 C 0 km/h
17 07-11-2020 01:20:00 0.6 C 4.85 g/m*3 0.6 C 0 km/h
18 07-11-2020 01:25:00 0.6 C 4.85 g/m*3 0.6 C 0 km/h
19 07-11-2020 01:30:00 0.7 C 4.93 g/m*3 0.7 C 0 km/h
20 07-11-2020 01:35:00 0.7 C 4.93 g/m*3 0.7 C 0 km/h
21 07-11-2020 01:40:00 0.7 C 4.93 g/m*3 0.7 C 0 km/h
22 07-11-2020 01:45:00 0.6 C 4.9 g/m*3 0.6 C 0 km/h
23 07-11-2020 01:50:00 0.6 C 4.9 g/m*3 0.6 C 0 km/h
24 07-11-2020 01:55:00 0.6 C 4.9 g/m*3 0.6 C 0 km/h
25 07-11-2020 02:00:00 0.6 C 4.9 g/m*3 0.6 C 0 km/h
Sensor: Nr:Datum:Temp:Abs-Feuchte:Windchill:Wind:
Aussen-T/F 26 07-11-2020 02:05:00 0.5 C 4.86 g/m*3 0.5 C 0 km/h
27 07-11-2020 02:10:00 0.5 C 4.81 g/m*3 0.5 C 0 km/h
28 07-11-2020 02:15:00 0.4 C 4.78 g/m*3 0.4 C 0 km/h
29 07-11-2020 02:20:00 0.5 C 4.81 g/m*3 0.5 C 0 km/h
30 07-11-2020 02:25:00 0.5 C 4.81 g/m*3 0.5 C 0 km/h
31 07-11-2020 02:30:00 0.5 C 4.86 g/m*3 0.5 C 0 km/h
32 07-11-2020 02:35:00 0.6 C 4.9 g/m*3 0.6 C 0 km/h
33 07-11-2020 02:40:00 0.5 C 4.86 g/m*3 0.5 C 0 km/h
34 07-11-2020 02:45:00 0.5 C 4.86 g/m*3 0.5 C 0 km/h
35 07-11-2020 02:50:00 0.5 C 4.86 g/m*3 0.5 C 0 km/h
36 07-11-2020 02:55:00 0.5 C 4.86 g/m*3 0.5 C 0 km/h
37 07-11-2020 03:00:00 0.5 C 4.86 g/m*3 0.5 C 0 km/h
38 07-11-2020 03:05:00 0.6 C 4.9 g/m*3 0.6 C 0 km/h
39 07-11-2020 03:10:00 0.6 C 4.9 g/m*3 0.6 C 0 km/h
40 07-11-2020 03:15:00 0.5 C 4.86 g/m*3 0.5 C 0 km/h
41 07-11-2020 03:20:00 0.4 C 4.83 g/m*3 0.4 C 0 km/h
42 07-11-2020 03:25:00 0.3 C 4.8 g/m*3 0.3 C 0 km/h
43 07-11-2020 03:30:00 0.3 C 4.8 g/m*3 0.3 C 0 km/h
44 07-11-2020 03:35:00 0.3 C 4.8 g/m*3 0.3 C 0 km/h
45 07-11-2020 03:40:00 0.3 C 4.8 g/m*3 0.3 C 0 km/h
46 07-11-2020 03:45:00 0.3 C 4.8 g/m*3 0.3 C 0 km/h
47 07-11-2020 03:50:00 0.3 C 4.8 g/m*3 0.3 C 0 km/h
48 07-11-2020 03:55:00 0.3 C 4.8 g/m*3 0.3 C 0 km/h
49 07-11-2020 04:00:00 0.4 C 4.83 g/m*3 0.4 C 0 km/h
50 07-11-2020 04:05:00 0.4 C 4.83 g/m*3 0.4 C 0 km/h
Sensor: Nr:Datum:Temp:Abs-Feuchte:Windchill:Wind:
Aussen-T/F 51 07-11-2020 04:10:00 0.3 C 4.8 g/m*3 0.3 C 0 km/h
52 07-11-2020 04:15:00 0.3 C 4.8 g/m*3 0.3 C 0 km/h
53 07-11-2020 04:20:00 0.4 C 4.83 g/m*3 0.4 C 0 km/h
54 07-11-2020 04:25:00 0.4 C 4.83 g/m*3 0.4 C 0 km/h
55 07-11-2020 04:30:00 0.4 C 4.83 g/m*3 0.4 C 0 km/h
56 07-11-2020 04:35:00 0.4 C 4.83 g/m*3 0.4 C 0 km/h
57 07-11-2020 04:40:00 0.3 C 4.8 g/m*3 0.3 C 0 km/h
58 07-11-2020 04:45:00 0.3 C 4.8 g/m*3 0.3 C 0 km/h
59 07-11-2020 04:50:00 0.4 C 4.83 g/m*3 0.4 C 0 km/h
60 07-11-2020 04:55:00 0.4 C 4.83 g/m*3 0.4 C 0 km/h
61 07-11-2020 05:00:00 0.3 C 4.8 g/m*3 0.3 C 0 km/h
62 07-11-2020 05:05:00 0.3 C 4.8 g/m*3 0.3 C 0 km/h
63 07-11-2020 05:10:00 0.3 C 4.8 g/m*3 0.3 C 0 km/h
64 07-11-2020 05:15:00 0.3 C 4.8 g/m*3 0.3 C 0 km/h
65 07-11-2020 05:20:00 0.3 C 4.8 g/m*3 0.3 C 0 km/h
66 07-11-2020 05:25:00 0.3 C 4.8 g/m*3 0.3 C 0 km/h
67 07-11-2020 05:30:00 0.3 C 4.8 g/m*3 0.3 C 0 km/h
68 07-11-2020 05:35:00 0.3 C 4.8 g/m*3 0.3 C 0 km/h
69 07-11-2020 05:40:00 0.3 C 4.8 g/m*3 0.3 C 0 km/h
70 07-11-2020 05:45:00 0.3 C 4.8 g/m*3 0.3 C 0 km/h
71 07-11-2020 05:50:00 0.3 C 4.8 g/m*3 0.3 C 0 km/h
72 07-11-2020 05:55:00 0.3 C 4.8 g/m*3 0.3 C 0 km/h
73 07-11-2020 06:00:00 0.3 C 4.8 g/m*3 0.3 C 0 km/h
74 07-11-2020 06:05:00 0.3 C 4.8 g/m*3 0.3 C 0 km/h
75 07-11-2020 06:10:00 0.3 C 4.8 g/m*3 0.3 C 0 km/h
Sensor: Nr:Datum:Temp:Abs-Feuchte:Windchill:Wind:
Aussen-T/F 76 07-11-2020 06:15:00 0.3 C 4.8 g/m*3 0.3 C 0 km/h
77 07-11-2020 06:20:00 0.3 C 4.8 g/m*3 0.3 C 0 km/h
78 07-11-2020 06:25:00 0.3 C 4.8 g/m*3 0.3 C 0 km/h
79 07-11-2020 06:30:00 0.3 C 4.8 g/m*3 0.3 C 0 km/h
80 07-11-2020 06:35:00 0.3 C 4.8 g/m*3 0.3 C 0 km/h
81 07-11-2020 06:40:00 0.3 C 4.8 g/m*3 0.3 C 0 km/h
82 07-11-2020 06:45:00 0.3 C 4.8 g/m*3 0.3 C 0 km/h
83 07-11-2020 06:50:00 0.3 C 4.8 g/m*3 0.3 C 0 km/h
84 07-11-2020 06:55:00 0.3 C 4.8 g/m*3 0.3 C 0 km/h
85 07-11-2020 07:00:00 0.3 C 4.8 g/m*3 0.3 C 0 km/h
86 07-11-2020 07:05:00 0.3 C 4.8 g/m*3 0.3 C 0 km/h
87 07-11-2020 07:10:00 0.3 C 4.8 g/m*3 0.3 C 0 km/h
88 07-11-2020 07:15:00 0.3 C 4.8 g/m*3 0.3 C 0 km/h
89 07-11-2020 07:20:00 0.3 C 4.8 g/m*3 0.3 C 0 km/h
90 07-11-2020 07:25:00 0.3 C 4.8 g/m*3 0.3 C 0 km/h
91 07-11-2020 07:30:00 0.3 C 4.8 g/m*3 0.3 C 0 km/h
92 07-11-2020 07:35:00 0.3 C 4.8 g/m*3 0.3 C 0 km/h
93 07-11-2020 07:40:00 0.3 C 4.8 g/m*3 0.3 C 0 km/h
94 07-11-2020 07:45:00 0.3 C 4.8 g/m*3 0.3 C 0 km/h
95 07-11-2020 07:50:00 0.3 C 4.8 g/m*3 0.3 C 0 km/h
96 07-11-2020 07:55:00 0.4 C 4.83 g/m*3 0.4 C 0 km/h
97 07-11-2020 08:00:00 0.4 C 4.83 g/m*3 0.4 C 0 km/h
98 07-11-2020 08:05:00 0.5 C 4.86 g/m*3 0.5 C 0 km/h
99 07-11-2020 08:10:00 0.5 C 4.86 g/m*3 0.5 C 0 km/h
100 07-11-2020 08:15:00 0.6 C 4.9 g/m*3 0.6 C 0 km/h
Sensor: Nr:Datum:Temp:Abs-Feuchte:Windchill:Wind:
Aussen-T/F 101 07-11-2020 08:20:00 0.6 C 4.9 g/m*3 0.6 C 0 km/h
102 07-11-2020 08:25:00 0.7 C 4.93 g/m*3 0.7 C 0 km/h
103 07-11-2020 08:30:00 0.7 C 4.93 g/m*3 0.7 C 0 km/h
104 07-11-2020 08:35:00 0.8 C 4.97 g/m*3 0.8 C 0 km/h
105 07-11-2020 08:40:00 0.8 C 4.97 g/m*3 0.8 C 0 km/h
106 07-11-2020 08:45:00 0.9 C 5 g/m*3 0.9 C 0 km/h
107 07-11-2020 08:50:00 1 C 5.03 g/m*3 1 C 0 km/h
108 07-11-2020 08:55:00 1.1 C 5.07 g/m*3 1.1 C 0 km/h
109 07-11-2020 09:00:00 1.2 C 5.1 g/m*3 1.2 C 0 km/h
110 07-11-2020 09:05:00 1.3 C 5.14 g/m*3 1.3 C 0 km/h
111 07-11-2020 09:10:00 1.3 C 5.14 g/m*3 1.3 C 0 km/h
112 07-11-2020 09:50:00 1.6 C 5.25 g/m*3 1.6 C 0 km/h
113 07-11-2020 09:55:00 2 C 5.39 g/m*3 2 C 0 km/h
114 07-11-2020 10:00:00 2.1 C 5.43 g/m*3 2.1 C 0 km/h
115 07-11-2020 10:05:00 2.2 C 5.52 g/m*3 2.2 C 0 km/h
116 07-11-2020 10:10:00 2.3 C 5.5 g/m*3 2.3 C 0 km/h
117 07-11-2020 10:15:00 2.4 C 5.54 g/m*3 2.4 C 0 km/h
118 07-11-2020 10:20:00 2.5 C 5.63 g/m*3 2.5 C 0 km/h
119 07-11-2020 10:25:00 2.7 C 5.71 g/m*3 2.7 C 0 km/h
120 07-11-2020 10:30:00 2.8 C 5.75 g/m*3 2.8 C 0 km/h
121 07-11-2020 10:35:00 2.9 C 5.79 g/m*3 2.9 C 0 km/h
122 07-11-2020 10:40:00 3.1 C 5.87 g/m*3 3.1 C 0 km/h
123 07-11-2020 10:45:00 3.2 C 5.91 g/m*3 3.2 C 0 km/h
124 07-11-2020 10:50:00 3.4 C 5.99 g/m*3 3.4 C 3.2 km/h
125 07-11-2020 10:55:00 3.7 C 6.11 g/m*3 3.7 C 0 km/h
Sensor: Nr:Datum:Temp:Abs-Feuchte:Windchill:Wind:
Aussen-T/F 126 07-11-2020 11:00:00 3.9 C 6.19 g/m*3 3.9 C 0 km/h
127 07-11-2020 11:05:00 4.1 C 6.27 g/m*3 4.1 C 0 km/h
128 07-11-2020 11:10:00 4.3 C 6.36 g/m*3 4.3 C 0 km/h
129 07-11-2020 11:15:00 4.4 C 6.4 g/m*3 4.4 C 0 km/h
130 07-11-2020 11:20:00 4.7 C 6.53 g/m*3 4.7 C 0 km/h
131 07-11-2020 11:25:00 4.8 C 6.57 g/m*3 4.8 C 4.8 km/h
132 07-11-2020 11:30:00 5 C 6.66 g/m*3 5 C 0 km/h
133 07-11-2020 11:35:00 5.2 C 6.75 g/m*3 5.2 C 0 km/h
134 07-11-2020 11:40:00 5.3 C 6.79 g/m*3 5.3 C 3.2 km/h
135 07-11-2020 11:45:00 5.4 C 6.84 g/m*3 5.4 C 1.6 km/h
136 07-11-2020 11:50:00 5.6 C 6.93 g/m*3 5.6 C 4.8 km/h
137 07-11-2020 11:55:00 5.8 C 7.02 g/m*3 5.8 C 4.8 km/h
138 07-11-2020 12:00:00 5.9 C 7.07 g/m*3 5.9 C 1.6 km/h
139 07-11-2020 12:05:00 6.1 C 7.16 g/m*3 6.1 C 3.2 km/h
140 07-11-2020 12:10:00 6.2 C 7.21 g/m*3 6.2 C 3.2 km/h
141 07-11-2020 12:15:00 6.3 C 7.25 g/m*3 6.3 C 3.2 km/h
142 07-11-2020 12:20:00 6.4 C 7.3 g/m*3 6.4 C 4.8 km/h
143 07-11-2020 12:25:00 6.6 C 7.4 g/m*3 6.6 C 4.8 km/h
144 07-11-2020 12:30:00 6.7 C 7.45 g/m*3 6.7 C 3.2 km/h
145 07-11-2020 12:35:00 6.8 C 7.5 g/m*3 6.8 C 4.8 km/h
146 07-11-2020 12:40:00 6.9 C 7.54 g/m*3 6.9 C 4.8 km/h
147 07-11-2020 12:45:00 6.9 C 7.54 g/m*3 6.9 C 3.2 km/h
148 07-11-2020 12:50:00 7.1 C 7.64 g/m*3 7.1 C 3.2 km/h
149 07-11-2020 12:55:00 7.2 C 7.69 g/m*3 7.2 C 4.8 km/h
150 07-11-2020 13:00:00 7.3 C 7.74 g/m*3 7.3 C 4.8 km/h
Sensor: Nr:Datum:Temp:Abs-Feuchte:Windchill:Wind:
Aussen-T/F 151 07-11-2020 13:05:00 7.4 C 7.79 g/m*3 7.4 C 4.8 km/h
152 07-11-2020 13:10:00 7.5 C 7.84 g/m*3 7.5 C 3.2 km/h
153 07-11-2020 13:15:00 7.6 C 7.9 g/m*3 7.6 C 0 km/h
154 07-11-2020 13:20:00 7.7 C 7.95 g/m*3 7.7 C 0 km/h
155 07-11-2020 13:25:00 7.8 C 8 g/m*3 7.8 C 4.8 km/h
156 07-11-2020 13:30:00 7.9 C 8.05 g/m*3 7.9 C 4.8 km/h
157 07-11-2020 13:35:00 7.9 C 8.05 g/m*3 7.9 C 4.8 km/h
158 07-11-2020 13:40:00 8.1 C 8.15 g/m*3 8.1 C 3.2 km/h
159 07-11-2020 13:45:00 8.1 C 8.15 g/m*3 8.1 C 4.8 km/h
160 07-11-2020 13:50:00 8.2 C 8.21 g/m*3 8.2 C 4.8 km/h
161 07-11-2020 13:55:00 8.3 C 8.26 g/m*3 8.3 C 3.2 km/h
162 07-11-2020 14:00:00 8.4 C 8.31 g/m*3 8.4 C 4.8 km/h
163 07-11-2020 14:05:00 8.6 C 8.42 g/m*3 8.6 C 3.2 km/h
164 07-11-2020 14:10:00 8.6 C 8.42 g/m*3 8.6 C 3.2 km/h
165 07-11-2020 14:15:00 8.7 C 8.48 g/m*3 8.7 C 4.8 km/h
166 07-11-2020 14:20:00 8.8 C 8.53 g/m*3 8.8 C 4.8 km/h
167 07-11-2020 14:25:00 8.8 C 8.53 g/m*3 8.8 C 4.8 km/h
168 07-11-2020 14:30:00 8.9 C 8.58 g/m*3 8.9 C 3.2 km/h
169 07-11-2020 14:35:00 9 C 8.64 g/m*3 9 C 4.8 km/h
170 07-11-2020 14:40:00 9.1 C 8.7 g/m*3 8.33 C 6.4 km/h
171 07-11-2020 14:45:00 9.2 C 8.75 g/m*3 8.45 C 6.4 km/h
172 07-11-2020 14:50:00 9.3 C 8.81 g/m*3 9.3 C 4.8 km/h
173 07-11-2020 14:55:00 9.3 C 8.81 g/m*3 8.56 C 6.4 km/h
174 07-11-2020 15:00:00 9.4 C 8.77 g/m*3 9.4 C 4.8 km/h
175 07-11-2020 15:05:00 9.5 C 8.83 g/m*3 9.5 C 4.8 km/h
Sensor: Nr:Datum:Temp:Abs-Feuchte:Windchill:Wind:
Aussen-T/F 176 07-11-2020 15:10:00 9.5 C 8.83 g/m*3 9.5 C 4.8 km/h
177 07-11-2020 15:15:00 9.6 C 8.89 g/m*3 8.91 C 6.4 km/h
178 07-11-2020 15:20:00 9.7 C 8.94 g/m*3 9.7 C 4.8 km/h
179 07-11-2020 15:25:00 9.7 C 8.94 g/m*3 9.7 C 3.2 km/h
180 07-11-2020 15:30:00 9.8 C 8.91 g/m*3 9.8 C 0 km/h
181 07-11-2020 15:35:00 9.8 C 8.91 g/m*3 9.8 C 4.8 km/h
182 07-11-2020 15:40:00 9.8 C 8.91 g/m*3 9.8 C 3.2 km/h
183 07-11-2020 15:45:00 9.8 C 8.91 g/m*3 9.8 C 3.2 km/h
184 07-11-2020 15:50:00 9.8 C 8.81 g/m*3 9.8 C 4.8 km/h
185 07-11-2020 15:55:00 9.8 C 8.81 g/m*3 9.8 C 3.2 km/h
186 07-11-2020 16:00:00 9.8 C 8.81 g/m*3 9.8 C 0 km/h
187 07-11-2020 16:05:00 9.7 C 8.67 g/m*3 9.7 C 1.6 km/h
188 07-11-2020 16:10:00 9.7 C 8.67 g/m*3 9.02 C 6.4 km/h
189 07-11-2020 16:15:00 9.7 C 8.57 g/m*3 9.02 C 6.4 km/h
190 07-11-2020 16:20:00 9.6 C 8.52 g/m*3 9.6 C 1.6 km/h
191 07-11-2020 16:25:00 9.6 C 8.52 g/m*3 9.6 C 1.6 km/h
192 07-11-2020 16:30:00 9.6 C 8.43 g/m*3 9.6 C 1.6 km/h
193 07-11-2020 16:35:00 9.5 C 8.37 g/m*3 9.5 C 0 km/h
194 07-11-2020 16:40:00 9.3 C 8.18 g/m*3 9.3 C 1.6 km/h
195 07-11-2020 16:45:00 9.2 C 8.13 g/m*3 9.2 C 4.8 km/h
196 07-11-2020 16:50:00 9.1 C 8.07 g/m*3 9.1 C 0 km/h
197 07-11-2020 16:55:00 8.9 C 7.97 g/m*3 8.9 C 0 km/h
198 07-11-2020 17:00:00 8.7 C 7.87 g/m*3 8.7 C 3.2 km/h
199 07-11-2020 17:05:00 8.6 C 7.82 g/m*3 8.6 C 3.2 km/h
200 07-11-2020 17:10:00 8.4 C 7.72 g/m*3 8.4 C 0 km/h
Sensor: Nr:Datum:Temp:Abs-Feuchte:Windchill:Wind:
Aussen-T/F 201 07-11-2020 17:15:00 8.3 C 7.67 g/m*3 8.3 C 0 km/h
202 07-11-2020 17:20:00 8.2 C 7.62 g/m*3 8.2 C 1.6 km/h
203 07-11-2020 17:25:00 8.1 C 7.66 g/m*3 8.1 C 0 km/h
204 07-11-2020 17:30:00 8 C 7.61 g/m*3 8 C 4.8 km/h
205 07-11-2020 17:35:00 7.9 C 7.56 g/m*3 7.9 C 1.6 km/h
206 07-11-2020 17:40:00 7.8 C 7.51 g/m*3 7.8 C 0 km/h
207 07-11-2020 17:45:00 7.7 C 7.46 g/m*3 7.7 C 3.2 km/h
208 07-11-2020 17:50:00 7.7 C 7.46 g/m*3 7.7 C 3.2 km/h
209 07-11-2020 17:55:00 7.7 C 7.46 g/m*3 7.7 C 4.8 km/h
210 07-11-2020 18:00:00 7.6 C 7.41 g/m*3 7.6 C 3.2 km/h
211 07-11-2020 18:05:00 7.6 C 7.49 g/m*3 7.6 C 4.8 km/h
212 07-11-2020 18:10:00 7.6 C 7.49 g/m*3 6.6 C 6.4 km/h
213 07-11-2020 18:15:00 7.5 C 7.44 g/m*3 7.5 C 4.8 km/h
214 07-11-2020 18:20:00 7.5 C 7.44 g/m*3 7.5 C 3.2 km/h
215 07-11-2020 18:25:00 7.4 C 7.4 g/m*3 7.4 C 3.2 km/h
216 07-11-2020 18:30:00 7.4 C 7.4 g/m*3 7.4 C 4.8 km/h
217 07-11-2020 18:35:00 7.4 C 7.4 g/m*3 7.4 C 4.8 km/h
218 07-11-2020 18:40:00 7.3 C 7.35 g/m*3 7.3 C 3.2 km/h
219 07-11-2020 18:45:00 7.3 C 7.35 g/m*3 7.3 C 4.8 km/h
220 07-11-2020 18:50:00 7.2 C 7.3 g/m*3 7.2 C 3.2 km/h
221 07-11-2020 18:55:00 7.2 C 7.3 g/m*3 7.2 C 3.2 km/h
222 07-11-2020 19:00:00 7.1 C 7.25 g/m*3 7.1 C 0 km/h
223 07-11-2020 19:05:00 7 C 7.21 g/m*3 7 C 0 km/h
224 07-11-2020 19:10:00 6.9 C 7.16 g/m*3 6.9 C 4.8 km/h
225 07-11-2020 19:15:00 6.8 C 7.11 g/m*3 6.8 C 4.8 km/h
Sensor: Nr:Datum:Temp:Abs-Feuchte:Windchill:Wind:
Aussen-T/F 226 07-11-2020 19:20:00 6.8 C 7.11 g/m*3 6.8 C 4.8 km/h
227 07-11-2020 19:25:00 6.8 C 7.11 g/m*3 6.8 C 4.8 km/h
228 07-11-2020 19:30:00 6.8 C 7.11 g/m*3 6.8 C 0 km/h
229 07-11-2020 19:35:00 6.8 C 7.11 g/m*3 6.8 C 0 km/h
230 07-11-2020 19:40:00 6.7 C 7.07 g/m*3 6.7 C 0 km/h
231 07-11-2020 19:45:00 6.7 C 7.07 g/m*3 6.7 C 0 km/h
232 07-11-2020 19:50:00 6.7 C 7.07 g/m*3 6.7 C 0 km/h
233 07-11-2020 19:55:00 6.6 C 7.1 g/m*3 6.6 C 0 km/h
234 07-11-2020 20:00:00 6.6 C 7.1 g/m*3 6.6 C 0 km/h
235 07-11-2020 20:05:00 6.6 C 7.1 g/m*3 6.6 C 0 km/h
236 07-11-2020 20:10:00 6.6 C 7.02 g/m*3 6.6 C 0 km/h
237 07-11-2020 20:15:00 6.4 C 6.93 g/m*3 6.4 C 0 km/h
238 07-11-2020 20:20:00 6.4 C 6.93 g/m*3 6.4 C 0 km/h
239 07-11-2020 20:25:00 6.3 C 6.88 g/m*3 6.3 C 0 km/h
240 07-11-2020 20:30:00 6.3 C 6.88 g/m*3 6.3 C 0 km/h
241 07-11-2020 20:35:00 6.2 C 6.91 g/m*3 6.2 C 0 km/h
242 07-11-2020 20:40:00 6.2 C 6.84 g/m*3 6.2 C 0 km/h
243 07-11-2020 20:45:00 6.1 C 6.79 g/m*3 6.1 C 0 km/h
244 07-11-2020 20:50:00 6 C 6.82 g/m*3 6 C 0 km/h
245 07-11-2020 20:55:00 5.9 C 6.78 g/m*3 5.9 C 0 km/h
246 07-11-2020 21:00:00 5.9 C 6.78 g/m*3 5.9 C 0 km/h
247 07-11-2020 21:05:00 5.8 C 6.73 g/m*3 5.8 C 0 km/h
248 07-11-2020 21:10:00 5.7 C 6.69 g/m*3 5.7 C 0 km/h
249 07-11-2020 21:15:00 5.7 C 6.69 g/m*3 5.7 C 0 km/h
250 07-11-2020 21:20:00 5.6 C 6.65 g/m*3 5.6 C 0 km/h
Sensor: Nr:Datum:Temp:Abs-Feuchte:Windchill:Wind:
Aussen-T/F 251 07-11-2020 21:25:00 5.6 C 6.65 g/m*3 5.6 C 0 km/h
252 07-11-2020 21:30:00 5.6 C 6.65 g/m*3 5.6 C 0 km/h
253 07-11-2020 21:35:00 5.6 C 6.65 g/m*3 5.6 C 0 km/h
254 07-11-2020 21:40:00 5.6 C 6.65 g/m*3 5.6 C 0 km/h
255 07-11-2020 21:45:00 5.4 C 6.56 g/m*3 5.4 C 0 km/h
256 07-11-2020 21:50:00 5.4 C 6.56 g/m*3 5.4 C 0 km/h
257 07-11-2020 21:55:00 5.3 C 6.52 g/m*3 5.3 C 0 km/h
258 07-11-2020 22:00:00 5.3 C 6.52 g/m*3 5.3 C 0 km/h
259 07-11-2020 22:05:00 5.2 C 6.47 g/m*3 5.2 C 0 km/h
260 07-11-2020 22:10:00 5.2 C 6.47 g/m*3 5.2 C 0 km/h
261 07-11-2020 22:15:00 5.1 C 6.43 g/m*3 5.1 C 0 km/h
262 07-11-2020 22:20:00 5.1 C 6.43 g/m*3 5.1 C 0 km/h
263 07-11-2020 22:25:00 5 C 6.46 g/m*3 5 C 0 km/h
264 07-11-2020 22:30:00 4.9 C 6.41 g/m*3 4.9 C 0 km/h
265 07-11-2020 22:35:00 4.8 C 6.37 g/m*3 4.8 C 0 km/h
266 07-11-2020 22:40:00 4.7 C 6.26 g/m*3 4.7 C 0 km/h
267 07-11-2020 22:45:00 4.7 C 6.33 g/m*3 4.7 C 0 km/h
268 07-11-2020 22:50:00 4.6 C 6.29 g/m*3 4.6 C 0 km/h
269 07-11-2020 22:55:00 4.5 C 6.24 g/m*3 4.5 C 0 km/h
270 07-11-2020 23:00:00 4.4 C 6.2 g/m*3 4.4 C 0 km/h
271 07-11-2020 23:05:00 4.3 C 6.16 g/m*3 4.3 C 0 km/h
272 07-11-2020 23:10:00 4.3 C 6.16 g/m*3 4.3 C 0 km/h
273 07-11-2020 23:15:00 4.3 C 6.16 g/m*3 4.3 C 0 km/h
274 07-11-2020 23:20:00 4.3 C 6.16 g/m*3 4.3 C 0 km/h
275 07-11-2020 23:25:00 4.2 C 6.12 g/m*3 4.2 C 0 km/h
Sensor: Nr:Datum:Temp:Abs-Feuchte:Windchill:Wind:
Aussen-T/F 276 07-11-2020 23:30:00 4.2 C 6.12 g/m*3 4.2 C 0 km/h
277 07-11-2020 23:35:00 4.2 C 6.12 g/m*3 4.2 C 0 km/h
278 07-11-2020 23:40:00 4.2 C 6.12 g/m*3 4.2 C 0 km/h
279 07-11-2020 23:45:00 4.1 C 6.08 g/m*3 4.1 C 0 km/h
280 07-11-2020 23:50:00 4.1 C 6.08 g/m*3 4.1 C 0 km/h
281 07-11-2020 23:55:00 4.1 C 6.08 g/m*3 4.1 C 0 km/h
282 08-11-2020 00:00:00 4.1 C 6.14 g/m*3 4.1 C 0 km/h
283 08-11-2020 00:05:00 4.1 C 6.14 g/m*3 4.1 C 0 km/h
284 08-11-2020 00:10:00 4.1 C 6.14 g/m*3 4.1 C 0 km/h
285 08-11-2020 00:15:00 4 C 6.04 g/m*3 4 C 0 km/h
286 08-11-2020 00:20:00 4 C 6.04 g/m*3 4 C 0 km/h
287 08-11-2020 00:25:00 3.9 C 6 g/m*3 3.9 C 0 km/h
288 08-11-2020 00:30:00 3.9 C 6.06 g/m*3 3.9 C 0 km/h
289 08-11-2020 00:35:00 3.9 C 6.06 g/m*3 3.9 C 0 km/h
290 08-11-2020 00:40:00 3.9 C 6.06 g/m*3 3.9 C 0 km/h
291 08-11-2020 00:45:00 3.9 C 6.06 g/m*3 3.9 C 0 km/h
292 08-11-2020 00:50:00 3.8 C 6.02 g/m*3 3.8 C 0 km/h
293 08-11-2020 00:55:00 3.8 C 6.02 g/m*3 3.8 C 0 km/h
294 08-11-2020 01:00:00 3.8 C 6.02 g/m*3 3.8 C 0 km/h
295 08-11-2020 01:05:00 3.7 C 5.98 g/m*3 3.7 C 0 km/h
296 08-11-2020 01:10:00 3.7 C 5.98 g/m*3 3.7 C 0 km/h
297 08-11-2020 01:15:00 3.6 C 5.94 g/m*3 3.6 C 0 km/h
298 08-11-2020 01:20:00 3.6 C 5.94 g/m*3 3.6 C 0 km/h
299 08-11-2020 01:25:00 3.4 C 5.8 g/m*3 3.4 C 0 km/h
300 08-11-2020 01:30:00 3.4 C 5.8 g/m*3 3.4 C 0 km/h
Sensor: Nr:Datum:Temp:Abs-Feuchte:Windchill:Wind:
Aussen-T/F 301 08-11-2020 01:35:00 3.3 C 5.82 g/m*3 3.3 C 0 km/h
302 08-11-2020 01:40:00 3.3 C 5.82 g/m*3 3.3 C 0 km/h
303 08-11-2020 01:45:00 3.3 C 5.82 g/m*3 3.3 C 0 km/h
304 08-11-2020 01:50:00 3.2 C 5.79 g/m*3 3.2 C 0 km/h
305 08-11-2020 01:55:00 3.2 C 5.79 g/m*3 3.2 C 0 km/h
306 08-11-2020 02:00:00 3.2 C 5.79 g/m*3 3.2 C 0 km/h
307 08-11-2020 02:05:00 3.2 C 5.79 g/m*3 3.2 C 0 km/h
308 08-11-2020 02:10:00 3.2 C 5.79 g/m*3 3.2 C 0 km/h
309 08-11-2020 02:15:00 3.3 C 5.82 g/m*3 3.3 C 0 km/h
310 08-11-2020 02:20:00 3.3 C 5.82 g/m*3 3.3 C 0 km/h
311 08-11-2020 02:25:00 3.3 C 5.82 g/m*3 3.3 C 0 km/h
312 08-11-2020 02:30:00 3.3 C 5.82 g/m*3 3.3 C 0 km/h
313 08-11-2020 02:35:00 3.3 C 5.82 g/m*3 3.3 C 0 km/h
314 08-11-2020 02:40:00 3.2 C 5.79 g/m*3 3.2 C 0 km/h
315 08-11-2020 02:45:00 3.1 C 5.75 g/m*3 3.1 C 0 km/h
316 08-11-2020 02:50:00 3.1 C 5.75 g/m*3 3.1 C 0 km/h
317 08-11-2020 02:55:00 3 C 5.71 g/m*3 3 C 0 km/h
318 08-11-2020 03:00:00 2.9 C 5.67 g/m*3 2.9 C 0 km/h
319 08-11-2020 03:05:00 2.9 C 5.67 g/m*3 2.9 C 0 km/h
320 08-11-2020 03:10:00 2.8 C 5.63 g/m*3 2.8 C 0 km/h
321 08-11-2020 03:15:00 2.8 C 5.63 g/m*3 2.8 C 0 km/h
322 08-11-2020 03:20:00 2.8 C 5.63 g/m*3 2.8 C 0 km/h
323 08-11-2020 03:25:00 2.8 C 5.63 g/m*3 2.8 C 0 km/h
324 08-11-2020 03:30:00 2.8 C 5.63 g/m*3 2.8 C 0 km/h
325 08-11-2020 03:35:00 2.9 C 5.67 g/m*3 2.9 C 0 km/h
Sensor: Nr:Datum:Temp:Abs-Feuchte:Windchill:Wind:
Aussen-T/F 326 08-11-2020 03:40:00 2.9 C 5.67 g/m*3 2.9 C 0 km/h
327 08-11-2020 03:45:00 2.9 C 5.67 g/m*3 2.9 C 0 km/h
328 08-11-2020 03:50:00 2.8 C 5.63 g/m*3 2.8 C 0 km/h
329 08-11-2020 03:55:00 2.8 C 5.63 g/m*3 2.8 C 0 km/h
330 08-11-2020 04:00:00 2.8 C 5.63 g/m*3 2.8 C 0 km/h
331 08-11-2020 04:05:00 2.8 C 5.63 g/m*3 2.8 C 0 km/h
332 08-11-2020 04:10:00 2.8 C 5.63 g/m*3 2.8 C 0 km/h
333 08-11-2020 04:15:00 2.9 C 5.73 g/m*3 2.9 C 0 km/h
334 08-11-2020 04:20:00 2.8 C 5.63 g/m*3 2.8 C 0 km/h
335 08-11-2020 04:25:00 2.7 C 5.59 g/m*3 2.7 C 0 km/h
336 08-11-2020 04:30:00 2.6 C 5.56 g/m*3 2.6 C 0 km/h
337 08-11-2020 04:35:00 2.5 C 5.52 g/m*3 2.5 C 0 km/h
338 08-11-2020 04:40:00 2.4 C 5.48 g/m*3 2.4 C 0 km/h
339 08-11-2020 04:45:00 2.4 C 5.48 g/m*3 2.4 C 0 km/h
340 08-11-2020 04:50:00 2.4 C 5.48 g/m*3 2.4 C 0 km/h
341 08-11-2020 04:55:00 2.4 C 5.48 g/m*3 2.4 C 0 km/h
342 08-11-2020 05:00:00 2.5 C 5.58 g/m*3 2.5 C 0 km/h
343 08-11-2020 05:05:00 2.6 C 5.61 g/m*3 2.6 C 0 km/h
344 08-11-2020 05:10:00 2.7 C 5.65 g/m*3 2.7 C 0 km/h
345 08-11-2020 05:15:00 2.7 C 5.65 g/m*3 2.7 C 0 km/h
346 08-11-2020 05:20:00 2.7 C 5.65 g/m*3 2.7 C 0 km/h
347 08-11-2020 05:25:00 2.7 C 5.65 g/m*3 2.7 C 0 km/h
348 08-11-2020 05:30:00 2.7 C 5.65 g/m*3 2.7 C 0 km/h
349 08-11-2020 05:35:00 2.7 C 5.59 g/m*3 2.7 C 0 km/h
350 08-11-2020 05:40:00 2.6 C 5.56 g/m*3 2.6 C 0 km/h
Sensor: Nr:Datum:Temp:Abs-Feuchte:Windchill:Wind:
Aussen-T/F 351 08-11-2020 05:45:00 2.5 C 5.58 g/m*3 2.5 C 0 km/h
352 08-11-2020 05:50:00 2.4 C 5.48 g/m*3 2.4 C 0 km/h
353 08-11-2020 05:55:00 2.3 C 5.44 g/m*3 2.3 C 0 km/h
354 08-11-2020 06:00:00 2.3 C 5.44 g/m*3 2.3 C 0 km/h
355 08-11-2020 06:05:00 2.3 C 5.44 g/m*3 2.3 C 0 km/h
356 08-11-2020 06:10:00 2.3 C 5.44 g/m*3 2.3 C 0 km/h
357 08-11-2020 06:15:00 2.3 C 5.44 g/m*3 2.3 C 0 km/h
358 08-11-2020 06:20:00 2.4 C 5.54 g/m*3 2.4 C 0 km/h
359 08-11-2020 06:25:00 2.5 C 5.58 g/m*3 2.5 C 0 km/h
360 08-11-2020 06:30:00 2.6 C 5.61 g/m*3 2.6 C 0 km/h
361 08-11-2020 06:35:00 2.7 C 5.65 g/m*3 2.7 C 0 km/h
362 08-11-2020 06:40:00 2.7 C 5.65 g/m*3 2.7 C 0 km/h
363 08-11-2020 06:45:00 2.7 C 5.65 g/m*3 2.7 C 0 km/h
364 08-11-2020 06:50:00 2.7 C 5.65 g/m*3 2.7 C 0 km/h
365 08-11-2020 06:55:00 2.7 C 5.65 g/m*3 2.7 C 0 km/h
366 08-11-2020 07:00:00 2.7 C 5.65 g/m*3 2.7 C 0 km/h
367 08-11-2020 07:05:00 2.6 C 5.61 g/m*3 2.6 C 0 km/h
368 08-11-2020 07:10:00 2.5 C 5.58 g/m*3 2.5 C 0 km/h
369 08-11-2020 07:15:00 2.5 C 5.58 g/m*3 2.5 C 0 km/h
370 08-11-2020 07:20:00 2.6 C 5.61 g/m*3 2.6 C 0 km/h
371 08-11-2020 07:25:00 2.5 C 5.58 g/m*3 2.5 C 0 km/h
372 08-11-2020 07:30:00 2.4 C 5.54 g/m*3 2.4 C 0 km/h
373 08-11-2020 07:35:00 2.4 C 5.54 g/m*3 2.4 C 0 km/h
374 08-11-2020 07:40:00 2.3 C 5.5 g/m*3 2.3 C 0 km/h
375 08-11-2020 07:45:00 2.2 C 5.46 g/m*3 2.2 C 0 km/h
Sensor: Nr:Datum:Temp:Abs-Feuchte:Windchill:Wind:
Aussen-T/F 376 08-11-2020 07:50:00 2.2 C 5.46 g/m*3 2.2 C 0 km/h
377 08-11-2020 07:55:00 2.2 C 5.46 g/m*3 2.2 C 0 km/h
378 08-11-2020 08:00:00 2.2 C 5.46 g/m*3 2.2 C 0 km/h
379 08-11-2020 08:05:00 2.2 C 5.46 g/m*3 2.2 C 0 km/h
380 08-11-2020 08:10:00 2.3 C 5.5 g/m*3 2.3 C 0 km/h
381 08-11-2020 08:15:00 2.5 C 5.58 g/m*3 2.5 C 0 km/h
382 08-11-2020 08:20:00 2.7 C 5.65 g/m*3 2.7 C 0 km/h
383 08-11-2020 08:25:00 2.8 C 5.69 g/m*3 2.8 C 0 km/h
384 08-11-2020 08:30:00 2.9 C 5.73 g/m*3 2.9 C 0 km/h
385 08-11-2020 08:35:00 3 C 5.77 g/m*3 3 C 0 km/h
386 08-11-2020 08:40:00 3.1 C 5.81 g/m*3 3.1 C 0 km/h
387 08-11-2020 08:45:00 3.1 C 5.81 g/m*3 3.1 C 0 km/h
388 08-11-2020 08:50:00 3.2 C 5.85 g/m*3 3.2 C 0 km/h
389 08-11-2020 08:55:00 3.3 C 5.88 g/m*3 3.3 C 0 km/h
390 08-11-2020 09:00:00 3.3 C 5.88 g/m*3 3.3 C 0 km/h
391 08-11-2020 09:05:00 3.4 C 5.92 g/m*3 3.4 C 0 km/h
392 08-11-2020 09:10:00 3.5 C 5.96 g/m*3 3.5 C 0 km/h
393 08-11-2020 09:15:00 3.7 C 6.04 g/m*3 3.7 C 0 km/h
394 08-11-2020 09:20:00 3.8 C 6.09 g/m*3 3.8 C 0 km/h
395 08-11-2020 09:25:00 3.9 C 6.13 g/m*3 3.9 C 0 km/h
396 08-11-2020 09:30:00 4 C 6.17 g/m*3 4 C 0 km/h
397 08-11-2020 09:35:00 4.1 C 6.21 g/m*3 4.1 C 0 km/h
398 08-11-2020 09:40:00 4.2 C 6.25 g/m*3 4.2 C 0 km/h
399 08-11-2020 09:45:00 4.3 C 6.36 g/m*3 4.3 C 0 km/h
400 08-11-2020 09:50:00 4.4 C 6.4 g/m*3 4.4 C 0 km/h
Sensor: Nr:Datum:Temp:Abs-Feuchte:Windchill:Wind:
Aussen-T/F 401 08-11-2020 09:55:00 4.6 C 6.42 g/m*3 4.6 C 0 km/h
402 08-11-2020 10:00:00 4.7 C 6.53 g/m*3 4.7 C 0 km/h
403 08-11-2020 10:05:00 4.8 C 6.57 g/m*3 4.8 C 0 km/h
404 08-11-2020 10:10:00 4.9 C 6.55 g/m*3 4.9 C 0 km/h
405 08-11-2020 10:15:00 5 C 6.66 g/m*3 5 C 0 km/h
406 08-11-2020 10:20:00 5.1 C 6.7 g/m*3 5.1 C 0 km/h
407 08-11-2020 10:25:00 5.2 C 6.68 g/m*3 5.2 C 0 km/h
408 08-11-2020 10:30:00 5.3 C 6.79 g/m*3 5.3 C 0 km/h
409 08-11-2020 10:35:00 5.5 C 6.88 g/m*3 5.5 C 0 km/h
410 08-11-2020 10:40:00 5.6 C 6.93 g/m*3 5.6 C 0 km/h
411 08-11-2020 10:45:00 5.7 C 6.97 g/m*3 5.7 C 0 km/h
412 08-11-2020 10:50:00 5.9 C 7.07 g/m*3 5.9 C 0 km/h
413 08-11-2020 10:55:00 6.1 C 7.16 g/m*3 6.1 C 0 km/h
414 08-11-2020 11:00:00 6.2 C 7.21 g/m*3 6.2 C 0 km/h
415 08-11-2020 11:05:00 6.3 C 7.25 g/m*3 6.3 C 0 km/h
416 08-11-2020 11:10:00 6.6 C 7.4 g/m*3 6.6 C 0 km/h
417 08-11-2020 11:15:00 6.7 C 7.45 g/m*3 6.7 C 0 km/h
418 08-11-2020 11:20:00 6.8 C 7.5 g/m*3 6.8 C 0 km/h
419 08-11-2020 11:25:00 6.9 C 7.54 g/m*3 6.9 C 0 km/h
420 08-11-2020 11:30:00 7.1 C 7.64 g/m*3 7.1 C 0 km/h
421 08-11-2020 11:35:00 7.2 C 7.69 g/m*3 7.2 C 0 km/h
422 08-11-2020 11:40:00 7.3 C 7.74 g/m*3 7.3 C 0 km/h
423 08-11-2020 11:45:00 7.5 C 7.84 g/m*3 7.5 C 0 km/h
424 08-11-2020 11:50:00 7.7 C 7.95 g/m*3 7.7 C 0 km/h
425 08-11-2020 11:55:00 7.8 C 7.92 g/m*3 7.8 C 0 km/h
Sensor: Nr:Datum:Temp:Abs-Feuchte:Windchill:Wind:
Aussen-T/F 426 08-11-2020 12:00:00 7.9 C 8.05 g/m*3 7.9 C 0 km/h
427 08-11-2020 12:05:00 8.1 C 8.07 g/m*3 8.1 C 0 km/h
428 08-11-2020 12:10:00 8.3 C 8.26 g/m*3 8.3 C 0 km/h
429 08-11-2020 12:15:00 8.5 C 8.28 g/m*3 8.5 C 0 km/h
430 08-11-2020 12:20:00 8.7 C 8.48 g/m*3 8.7 C 0 km/h
431 08-11-2020 12:25:00 8.8 C 8.44 g/m*3 8.8 C 0 km/h
432 08-11-2020 12:30:00 8.9 C 8.5 g/m*3 8.9 C 0 km/h
433 08-11-2020 12:35:00 9.1 C 8.61 g/m*3 9.1 C 0 km/h
434 08-11-2020 12:40:00 9.2 C 8.66 g/m*3 9.2 C 0 km/h
435 08-11-2020 12:45:00 9.3 C 8.72 g/m*3 9.3 C 0 km/h
436 08-11-2020 12:50:00 9.4 C 8.77 g/m*3 9.4 C 0 km/h
437 08-11-2020 12:55:00 9.5 C 8.74 g/m*3 9.5 C 0 km/h
438 08-11-2020 13:00:00 9.6 C 8.79 g/m*3 9.6 C 0 km/h
439 08-11-2020 13:05:00 9.8 C 8.91 g/m*3 9.8 C 0 km/h
440 08-11-2020 13:10:00 9.9 C 8.96 g/m*3 9.9 C 0 km/h
441 08-11-2020 13:15:00 10.1 C 9.08 g/m*3 10.1 C 0 km/h
442 08-11-2020 13:20:00 10.2 C 9.14 g/m*3 10.2 C 0 km/h
443 08-11-2020 13:25:00 10.3 C 9.19 g/m*3 10.3 C 0 km/h
444 08-11-2020 13:30:00 10.3 C 9.1 g/m*3 10.3 C 0 km/h
445 08-11-2020 13:35:00 10.4 C 9.06 g/m*3 10.4 C 0 km/h
446 08-11-2020 13:40:00 10.5 C 9.12 g/m*3 10.5 C 0 km/h
447 08-11-2020 13:45:00 10.7 C 9.13 g/m*3 10.7 C 0 km/h
448 08-11-2020 13:50:00 10.8 C 9.19 g/m*3 10.8 C 0 km/h
449 08-11-2020 13:55:00 10.9 C 9.15 g/m*3 10.9 C 0 km/h
450 08-11-2020 14:00:00 11.1 C 9.37 g/m*3 11.1 C 0 km/h
Sensor: Nr:Datum:Temp:Abs-Feuchte:Windchill:Wind:
Aussen-T/F 451 08-11-2020 14:05:00 11.2 C 9.33 g/m*3 11.2 C 0 km/h
452 08-11-2020 14:10:00 11.4 C 9.44 g/m*3 11.4 C 0 km/h
453 08-11-2020 14:15:00 11.6 C 9.46 g/m*3 11.6 C 0 km/h
454 08-11-2020 14:20:00 11.8 C 9.58 g/m*3 11.8 C 0 km/h
455 08-11-2020 14:25:00 11.9 C 9.53 g/m*3 11.9 C 0 km/h
456 08-11-2020 14:30:00 12 C 9.48 g/m*3 12 C 0 km/h
457 08-11-2020 14:35:00 12.2 C 9.5 g/m*3 12.2 C 0 km/h
458 08-11-2020 14:40:00 12.2 C 9.39 g/m*3 12.2 C 0 km/h
459 08-11-2020 14:45:00 12.3 C 9.56 g/m*3 12.3 C 0 km/h
460 08-11-2020 14:50:00 12.4 C 9.62 g/m*3 12.4 C 0 km/h
461 08-11-2020 14:55:00 12.5 C 9.78 g/m*3 12.5 C 0 km/h
462 08-11-2020 15:00:00 12.6 C 9.85 g/m*3 12.6 C 0 km/h
463 08-11-2020 15:05:00 12.7 C 9.8 g/m*3 12.7 C 0 km/h
464 08-11-2020 15:10:00 12.7 C 9.8 g/m*3 12.7 C 0 km/h
465 08-11-2020 15:15:00 12.7 C 9.8 g/m*3 12.7 C 0 km/h
466 08-11-2020 15:20:00 12.7 C 9.68 g/m*3 12.7 C 0 km/h
467 08-11-2020 15:25:00 12.7 C 9.8 g/m*3 12.7 C 0 km/h
468 08-11-2020 15:30:00 12.8 C 9.86 g/m*3 12.8 C 0 km/h
469 08-11-2020 15:35:00 12.8 C 9.74 g/m*3 12.8 C 0 km/h
470 08-11-2020 15:40:00 12.8 C 9.63 g/m*3 12.8 C 0 km/h
471 08-11-2020 15:45:00 12.8 C 9.74 g/m*3 12.8 C 0 km/h
472 08-11-2020 15:50:00 12.8 C 9.74 g/m*3 12.8 C 0 km/h
473 08-11-2020 15:55:00 12.7 C 9.68 g/m*3 12.7 C 0 km/h
474 08-11-2020 16:00:00 12.7 C 9.68 g/m*3 12.7 C 0 km/h
475 08-11-2020 16:05:00 12.6 C 9.62 g/m*3 12.6 C 0 km/h
Sensor: Nr:Datum:Temp:Abs-Feuchte:Windchill:Wind:
Aussen-T/F 476 08-11-2020 16:10:00 12.4 C 9.62 g/m*3 12.4 C 0 km/h
477 08-11-2020 16:15:00 12.3 C 9.56 g/m*3 12.3 C 0 km/h
478 08-11-2020 16:20:00 12.3 C 9.56 g/m*3 12.3 C 0 km/h
479 08-11-2020 16:25:00 12.2 C 9.6 g/m*3 12.2 C 0 km/h
480 08-11-2020 16:30:00 12.1 C 9.54 g/m*3 12.1 C 0 km/h
481 08-11-2020 16:35:00 12 C 9.48 g/m*3 12 C 0 km/h
482 08-11-2020 16:40:00 11.9 C 9.43 g/m*3 11.9 C 0 km/h
483 08-11-2020 16:45:00 11.8 C 9.37 g/m*3 11.8 C 0 km/h
484 08-11-2020 16:50:00 11.6 C 9.25 g/m*3 11.6 C 0 km/h
485 08-11-2020 16:55:00 11.5 C 9.3 g/m*3 11.5 C 0 km/h
486 08-11-2020 17:00:00 11.4 C 9.24 g/m*3 11.4 C 0 km/h
487 08-11-2020 17:05:00 11.3 C 9.18 g/m*3 11.3 C 0 km/h
488 08-11-2020 17:10:00 11.2 C 9.12 g/m*3 11.2 C 0 km/h
489 08-11-2020 17:15:00 11.2 C 9.22 g/m*3 11.2 C 0 km/h
490 08-11-2020 17:20:00 11.1 C 9.17 g/m*3 11.1 C 0 km/h
491 08-11-2020 17:25:00 11.1 C 9.17 g/m*3 11.1 C 0 km/h
492 08-11-2020 17:30:00 11 C 9.11 g/m*3 11 C 0 km/h
493 08-11-2020 17:35:00 10.9 C 9.15 g/m*3 10.9 C 0 km/h
494 08-11-2020 17:40:00 10.9 C 9.15 g/m*3 10.9 C 0 km/h
495 08-11-2020 17:45:00 10.9 C 9.15 g/m*3 10.9 C 0 km/h
496 08-11-2020 17:50:00 10.8 C 9.09 g/m*3 10.8 C 0 km/h
497 08-11-2020 17:55:00 10.8 C 9.09 g/m*3 10.8 C 0 km/h
498 08-11-2020 18:00:00 10.8 C 9.09 g/m*3 10.8 C 0 km/h
499 08-11-2020 18:05:00 10.7 C 9.04 g/m*3 10.7 C 0 km/h
500 08-11-2020 18:10:00 10.7 C 9.13 g/m*3 10.7 C 0 km/h
Sensor: Nr:Datum:Temp:Abs-Feuchte:Windchill:Wind:
Aussen-T/F 501 08-11-2020 18:15:00 10.7 C 9.13 g/m*3 10.7 C 0 km/h
502 08-11-2020 18:20:00 10.7 C 9.13 g/m*3 10.7 C 0 km/h
503 08-11-2020 18:25:00 10.7 C 9.13 g/m*3 10.7 C 0 km/h
504 08-11-2020 18:30:00 10.7 C 9.13 g/m*3 10.7 C 0 km/h
505 08-11-2020 18:35:00 10.7 C 9.13 g/m*3 10.7 C 0 km/h
506 08-11-2020 18:40:00 10.7 C 9.13 g/m*3 10.7 C 0 km/h
507 08-11-2020 18:45:00 10.6 C 9.08 g/m*3 10.6 C 0 km/h
508 08-11-2020 18:50:00 10.6 C 9.08 g/m*3 10.6 C 0 km/h
509 08-11-2020 18:55:00 10.6 C 9.08 g/m*3 10.6 C 0 km/h
510 08-11-2020 19:00:00 10.6 C 9.08 g/m*3 10.6 C 0 km/h
511 08-11-2020 19:05:00 10.6 C 9.17 g/m*3 10.6 C 0 km/h
512 08-11-2020 19:10:00 10.6 C 9.17 g/m*3 10.6 C 0 km/h
513 08-11-2020 19:15:00 10.6 C 9.17 g/m*3 10.6 C 0 km/h
514 08-11-2020 19:20:00 10.6 C 9.17 g/m*3 10.6 C 0 km/h
515 08-11-2020 19:25:00 10.6 C 9.17 g/m*3 10.6 C 0 km/h
516 08-11-2020 19:30:00 10.6 C 9.17 g/m*3 10.6 C 0 km/h
517 08-11-2020 19:35:00 10.6 C 9.17 g/m*3 10.6 C 0 km/h
518 08-11-2020 19:40:00 10.6 C 9.17 g/m*3 10.6 C 0 km/h
519 08-11-2020 19:45:00 10.5 C 9.12 g/m*3 10.5 C 0 km/h
520 08-11-2020 19:50:00 10.5 C 9.12 g/m*3 10.5 C 0 km/h
521 08-11-2020 19:55:00 10.4 C 9.16 g/m*3 10.4 C 0 km/h
522 08-11-2020 20:00:00 10.4 C 9.16 g/m*3 10.4 C 0 km/h
523 08-11-2020 20:05:00 10.4 C 9.16 g/m*3 10.4 C 0 km/h
524 08-11-2020 20:10:00 10.4 C 9.16 g/m*3 10.4 C 0 km/h
525 08-11-2020 20:15:00 10.4 C 9.16 g/m*3 10.4 C 0 km/h
Sensor: Nr:Datum:Temp:Abs-Feuchte:Windchill:Wind:
Aussen-T/F 526 08-11-2020 20:20:00 10.3 C 9.1 g/m*3 10.3 C 0 km/h
527 08-11-2020 20:25:00 10.3 C 9.1 g/m*3 10.3 C 0 km/h
528 08-11-2020 20:30:00 10.2 C 8.95 g/m*3 10.2 C 0 km/h
529 08-11-2020 20:35:00 10.2 C 8.95 g/m*3 10.2 C 0 km/h
530 08-11-2020 20:40:00 10.1 C 8.89 g/m*3 10.1 C 0 km/h
531 08-11-2020 20:45:00 10.1 C 8.98 g/m*3 10.1 C 0 km/h
532 08-11-2020 20:50:00 10.1 C 8.98 g/m*3 10.1 C 0 km/h
533 08-11-2020 20:55:00 10.1 C 8.98 g/m*3 10.1 C 0 km/h
534 08-11-2020 21:00:00 10.1 C 8.98 g/m*3 10.1 C 0 km/h
535 08-11-2020 21:05:00 10.1 C 8.98 g/m*3 10.1 C 0 km/h
536 08-11-2020 21:10:00 10.1 C 8.98 g/m*3 10.1 C 0 km/h
537 08-11-2020 21:15:00 10.1 C 8.98 g/m*3 10.1 C 0 km/h
538 08-11-2020 21:20:00 10.1 C 8.98 g/m*3 10.1 C 0 km/h
539 08-11-2020 21:25:00 10 C 8.93 g/m*3 10 C 0 km/h
540 08-11-2020 21:30:00 10 C 8.93 g/m*3 10 C 0 km/h
541 08-11-2020 21:35:00 9.9 C 8.87 g/m*3 9.9 C 0 km/h
542 08-11-2020 21:40:00 9.9 C 8.87 g/m*3 9.9 C 0 km/h
543 08-11-2020 21:45:00 9.8 C 8.81 g/m*3 9.8 C 0 km/h
544 08-11-2020 21:50:00 9.8 C 8.81 g/m*3 9.8 C 0 km/h
545 08-11-2020 21:55:00 9.8 C 8.81 g/m*3 9.8 C 0 km/h
546 08-11-2020 22:00:00 9.7 C 8.76 g/m*3 9.7 C 0 km/h
547 08-11-2020 22:05:00 9.7 C 8.76 g/m*3 9.7 C 0 km/h
548 08-11-2020 22:10:00 9.7 C 8.76 g/m*3 9.7 C 0 km/h
549 08-11-2020 22:15:00 9.7 C 8.76 g/m*3 9.7 C 0 km/h
550 08-11-2020 22:20:00 9.7 C 8.76 g/m*3 9.7 C 0 km/h
Sensor: Nr:Datum:Temp:Abs-Feuchte:Windchill:Wind:
Aussen-T/F 551 08-11-2020 22:25:00 9.6 C 8.7 g/m*3 9.6 C 0 km/h
552 08-11-2020 22:30:00 9.6 C 8.7 g/m*3 9.6 C 0 km/h
553 08-11-2020 22:35:00 9.6 C 8.7 g/m*3 9.6 C 0 km/h
554 08-11-2020 22:40:00 9.6 C 8.7 g/m*3 9.6 C 0 km/h
555 08-11-2020 22:45:00 9.6 C 8.7 g/m*3 9.6 C 0 km/h
556 08-11-2020 22:50:00 9.5 C 8.65 g/m*3 9.5 C 0 km/h
557 08-11-2020 22:55:00 9.4 C 8.59 g/m*3 9.4 C 0 km/h
558 08-11-2020 23:00:00 9.4 C 8.59 g/m*3 9.4 C 0 km/h
559 08-11-2020 23:05:00 9.4 C 8.59 g/m*3 9.4 C 0 km/h
560 08-11-2020 23:10:00 9.4 C 8.59 g/m*3 9.4 C 0 km/h
561 08-11-2020 23:15:00 9.4 C 8.59 g/m*3 9.4 C 0 km/h
562 08-11-2020 23:20:00 9.4 C 8.59 g/m*3 9.4 C 0 km/h
563 08-11-2020 23:25:00 9.4 C 8.59 g/m*3 9.4 C 0 km/h
564 08-11-2020 23:30:00 9.4 C 8.59 g/m*3 9.4 C 0 km/h
565 08-11-2020 23:35:00 9.4 C 8.59 g/m*3 9.4 C 0 km/h
566 08-11-2020 23:40:00 9.4 C 8.59 g/m*3 9.4 C 0 km/h
567 08-11-2020 23:45:00 9.4 C 8.59 g/m*3 9.4 C 0 km/h
568 08-11-2020 23:50:00 9.4 C 8.68 g/m*3 9.4 C 0 km/h
569 08-11-2020 23:55:00 9.5 C 8.74 g/m*3 9.5 C 0 km/h
570 09-11-2020 00:00:00 9.6 C 8.79 g/m*3 9.6 C 0 km/h
571 09-11-2020 00:05:00 9.6 C 8.79 g/m*3 9.6 C 0 km/h
572 09-11-2020 00:10:00 9.6 C 8.79 g/m*3 9.6 C 0 km/h
573 09-11-2020 00:15:00 9.5 C 8.74 g/m*3 9.5 C 0 km/h
574 09-11-2020 00:20:00 9.5 C 8.74 g/m*3 9.5 C 0 km/h
575 09-11-2020 00:25:00 9.5 C 8.74 g/m*3 9.5 C 0 km/h
Sensor: Nr:Datum:Temp:Abs-Feuchte:Windchill:Wind:
Aussen-T/F 576 09-11-2020 00:30:00 9.4 C 8.68 g/m*3 9.4 C 0 km/h
577 09-11-2020 00:35:00 9.4 C 8.68 g/m*3 9.4 C 0 km/h
578 09-11-2020 00:40:00 9.4 C 8.68 g/m*3 9.4 C 0 km/h
579 09-11-2020 00:45:00 9.3 C 8.63 g/m*3 9.3 C 0 km/h
580 09-11-2020 00:50:00 9.3 C 8.63 g/m*3 9.3 C 0 km/h
581 09-11-2020 00:55:00 9.3 C 8.63 g/m*3 9.3 C 0 km/h
582 09-11-2020 01:00:00 9.4 C 8.68 g/m*3 9.4 C 0 km/h
583 09-11-2020 01:05:00 9.4 C 8.68 g/m*3 9.4 C 0 km/h
584 09-11-2020 01:10:00 9.4 C 8.68 g/m*3 9.4 C 0 km/h
585 09-11-2020 01:15:00 9.4 C 8.68 g/m*3 9.4 C 0 km/h
586 09-11-2020 01:20:00 9.4 C 8.68 g/m*3 9.4 C 0 km/h
587 09-11-2020 01:25:00 9.4 C 8.68 g/m*3 9.4 C 0 km/h
588 09-11-2020 01:30:00 9.4 C 8.68 g/m*3 9.4 C 0 km/h
589 09-11-2020 01:35:00 9.4 C 8.68 g/m*3 9.4 C 0 km/h
590 09-11-2020 01:40:00 9.4 C 8.68 g/m*3 9.4 C 0 km/h
591 09-11-2020 01:45:00 9.4 C 8.68 g/m*3 9.4 C 0 km/h
592 09-11-2020 01:50:00 9.4 C 8.68 g/m*3 9.4 C 0 km/h
593 09-11-2020 01:55:00 9.4 C 8.68 g/m*3 9.4 C 0 km/h
594 09-11-2020 02:00:00 9.4 C 8.68 g/m*3 9.4 C 0 km/h
595 09-11-2020 02:05:00 9.4 C 8.68 g/m*3 9.4 C 0 km/h
596 09-11-2020 02:10:00 9.4 C 8.68 g/m*3 9.4 C 0 km/h
597 09-11-2020 02:15:00 9.4 C 8.68 g/m*3 9.4 C 0 km/h
598 09-11-2020 02:20:00 9.4 C 8.68 g/m*3 9.4 C 0 km/h
599 09-11-2020 02:25:00 9.4 C 8.68 g/m*3 9.4 C 0 km/h
600 09-11-2020 02:30:00 9.4 C 8.68 g/m*3 9.4 C 0 km/h
Sensor: Nr:Datum:Temp:Abs-Feuchte:Windchill:Wind:
Aussen-T/F 601 09-11-2020 02:35:00 9.3 C 8.63 g/m*3 9.3 C 0 km/h
602 09-11-2020 02:40:00 9.3 C 8.63 g/m*3 9.3 C 0 km/h
603 09-11-2020 02:45:00 9.3 C 8.63 g/m*3 9.3 C 0 km/h
604 09-11-2020 02:50:00 9.3 C 8.63 g/m*3 9.3 C 0 km/h
605 09-11-2020 02:55:00 9.3 C 8.63 g/m*3 9.3 C 0 km/h
606 09-11-2020 03:00:00 9.4 C 8.68 g/m*3 9.4 C 0 km/h
607 09-11-2020 03:05:00 9.4 C 8.68 g/m*3 9.4 C 0 km/h
608 09-11-2020 03:10:00 9.4 C 8.68 g/m*3 9.4 C 0 km/h
609 09-11-2020 03:15:00 9.3 C 8.63 g/m*3 9.3 C 0 km/h
610 09-11-2020 03:20:00 9.3 C 8.63 g/m*3 9.3 C 0 km/h
611 09-11-2020 03:25:00 9.3 C 8.63 g/m*3 8.56 C 6.4 km/h
612 09-11-2020 03:30:00 9.3 C 8.63 g/m*3 8.16 C 8.1 km/h
613 09-11-2020 03:35:00 9.3 C 8.72 g/m*3 9.3 C 1.6 km/h
614 09-11-2020 03:40:00 9.3 C 8.63 g/m*3 9.3 C 0 km/h
615 09-11-2020 03:45:00 9.3 C 8.63 g/m*3 9.3 C 0 km/h
616 09-11-2020 03:50:00 9.3 C 8.63 g/m*3 9.3 C 0 km/h
617 09-11-2020 03:55:00 9.3 C 8.63 g/m*3 9.3 C 0 km/h
618 09-11-2020 04:00:00 9.3 C 8.63 g/m*3 9.3 C 0 km/h
619 09-11-2020 04:05:00 9.3 C 8.72 g/m*3 9.3 C 0 km/h
620 09-11-2020 04:10:00 9.3 C 8.72 g/m*3 9.3 C 0 km/h
621 09-11-2020 04:15:00 9.3 C 8.72 g/m*3 9.3 C 0 km/h
622 09-11-2020 04:20:00 9.3 C 8.72 g/m*3 9.3 C 0 km/h
623 09-11-2020 04:25:00 9.3 C 8.72 g/m*3 9.3 C 0 km/h
624 09-11-2020 04:30:00 9.3 C 8.63 g/m*3 9.3 C 0 km/h
625 09-11-2020 04:35:00 9.2 C 8.57 g/m*3 9.2 C 0 km/h
Sensor: Nr:Datum:Temp:Abs-Feuchte:Windchill:Wind:
Aussen-T/F 626 09-11-2020 04:40:00 9.1 C 8.52 g/m*3 9.1 C 0 km/h
627 09-11-2020 04:45:00 9.1 C 8.52 g/m*3 9.1 C 0 km/h
628 09-11-2020 04:50:00 8.9 C 8.41 g/m*3 8.9 C 0 km/h
629 09-11-2020 04:55:00 8.9 C 8.41 g/m*3 8.9 C 0 km/h
630 09-11-2020 05:00:00 8.8 C 8.36 g/m*3 8.8 C 0 km/h
631 09-11-2020 05:05:00 8.7 C 8.3 g/m*3 8.7 C 0 km/h
632 09-11-2020 05:10:00 8.6 C 8.25 g/m*3 8.6 C 0 km/h
633 09-11-2020 05:15:00 8.4 C 8.14 g/m*3 8.4 C 0 km/h
634 09-11-2020 05:20:00 8.3 C 8.09 g/m*3 8.3 C 0 km/h
635 09-11-2020 05:25:00 8.2 C 8.04 g/m*3 8.2 C 0 km/h
636 09-11-2020 05:30:00 8.3 C 8.09 g/m*3 8.3 C 0 km/h
637 09-11-2020 05:35:00 8.3 C 8.09 g/m*3 8.3 C 0 km/h
638 09-11-2020 05:40:00 8.3 C 8.18 g/m*3 8.3 C 0 km/h
639 09-11-2020 05:45:00 8.3 C 8.18 g/m*3 8.3 C 0 km/h
640 09-11-2020 05:50:00 8.4 C 8.23 g/m*3 8.4 C 0 km/h
641 09-11-2020 05:55:00 8.5 C 8.28 g/m*3 8.5 C 0 km/h
642 09-11-2020 06:00:00 8.6 C 8.34 g/m*3 8.6 C 0 km/h
643 09-11-2020 06:05:00 8.5 C 8.28 g/m*3 8.5 C 0 km/h
644 09-11-2020 06:10:00 8.4 C 8.23 g/m*3 8.4 C 0 km/h
645 09-11-2020 06:15:00 8.4 C 8.23 g/m*3 8.4 C 0 km/h
646 09-11-2020 06:20:00 8.4 C 8.23 g/m*3 8.4 C 0 km/h
647 09-11-2020 06:25:00 8.3 C 8.18 g/m*3 8.3 C 0 km/h
648 09-11-2020 06:30:00 8.3 C 8.09 g/m*3 8.3 C 0 km/h
649 09-11-2020 06:35:00 8.2 C 8.04 g/m*3 8.2 C 0 km/h
650 09-11-2020 06:40:00 8.1 C 7.99 g/m*3 8.1 C 0 km/h
Sensor: Nr:Datum:Temp:Abs-Feuchte:Windchill:Wind:
Aussen-T/F 651 09-11-2020 06:45:00 8.1 C 8.07 g/m*3 8.1 C 0 km/h
652 09-11-2020 06:50:00 8.1 C 8.07 g/m*3 8.1 C 0 km/h
653 09-11-2020 06:55:00 8.2 C 8.12 g/m*3 8.2 C 0 km/h
654 09-11-2020 07:00:00 8.2 C 8.12 g/m*3 8.2 C 0 km/h
655 09-11-2020 07:05:00 8.2 C 8.12 g/m*3 8.2 C 0 km/h
656 09-11-2020 07:10:00 8.2 C 8.12 g/m*3 8.2 C 0 km/h
657 09-11-2020 07:15:00 8.2 C 8.12 g/m*3 8.2 C 0 km/h
658 09-11-2020 07:20:00 8.2 C 8.12 g/m*3 8.2 C 0 km/h
659 09-11-2020 07:25:00 8.2 C 8.12 g/m*3 8.2 C 0 km/h
660 09-11-2020 07:30:00 8.2 C 8.12 g/m*3 8.2 C 0 km/h
661 09-11-2020 07:35:00 8.1 C 8.07 g/m*3 8.1 C 0 km/h
662 09-11-2020 07:40:00 7.9 C 7.97 g/m*3 7.9 C 0 km/h
663 09-11-2020 07:45:00 7.8 C 7.83 g/m*3 7.8 C 0 km/h
664 09-11-2020 07:50:00 7.8 C 7.92 g/m*3 7.8 C 0 km/h
665 09-11-2020 07:55:00 7.9 C 7.97 g/m*3 7.9 C 0 km/h
666 09-11-2020 08:00:00 7.9 C 7.97 g/m*3 7.9 C 0 km/h
667 09-11-2020 08:05:00 8 C 8.02 g/m*3 8 C 0 km/h
668 09-11-2020 08:10:00 8.1 C 8.07 g/m*3 8.1 C 0 km/h
669 09-11-2020 08:15:00 8.2 C 8.12 g/m*3 8.2 C 0 km/h
670 09-11-2020 08:20:00 8.3 C 8.18 g/m*3 8.3 C 0 km/h
671 09-11-2020 08:25:00 8.3 C 8.18 g/m*3 8.3 C 0 km/h
672 09-11-2020 08:30:00 8.4 C 8.23 g/m*3 8.4 C 0 km/h
673 09-11-2020 08:35:00 8.5 C 8.28 g/m*3 8.5 C 0 km/h
674 09-11-2020 08:40:00 8.5 C 8.28 g/m*3 8.5 C 0 km/h
675 09-11-2020 08:45:00 8.6 C 8.34 g/m*3 8.6 C 0 km/h
Sensor: Nr:Datum:Temp:Abs-Feuchte:Windchill:Wind:
Aussen-T/F 676 09-11-2020 08:50:00 8.7 C 8.39 g/m*3 8.7 C 0 km/h
677 09-11-2020 08:55:00 8.7 C 8.39 g/m*3 8.7 C 0 km/h
678 09-11-2020 09:00:00 8.8 C 8.44 g/m*3 8.8 C 0 km/h
679 09-11-2020 09:05:00 8.8 C 8.44 g/m*3 8.8 C 0 km/h
680 09-11-2020 09:10:00 8.8 C 8.44 g/m*3 8.8 C 0 km/h
681 09-11-2020 09:15:00 8.8 C 8.44 g/m*3 8.8 C 0 km/h
682 09-11-2020 09:20:00 8.8 C 8.44 g/m*3 8.8 C 0 km/h
683 09-11-2020 09:25:00 8.8 C 8.44 g/m*3 8.8 C 0 km/h
684 09-11-2020 09:30:00 8.9 C 8.5 g/m*3 8.9 C 0 km/h
685 09-11-2020 09:35:00 9 C 8.55 g/m*3 9 C 0 km/h
686 09-11-2020 09:40:00 9.1 C 8.61 g/m*3 9.1 C 0 km/h
687 09-11-2020 09:45:00 9.2 C 8.66 g/m*3 9.2 C 0 km/h
688 09-11-2020 09:50:00 9.3 C 8.72 g/m*3 9.3 C 0 km/h
689 09-11-2020 09:55:00 9.3 C 8.72 g/m*3 9.3 C 0 km/h
690 09-11-2020 10:00:00 9.4 C 8.77 g/m*3 9.4 C 0 km/h
691 09-11-2020 10:05:00 9.4 C 8.77 g/m*3 9.4 C 0 km/h
692 09-11-2020 10:10:00 9.4 C 8.77 g/m*3 9.4 C 0 km/h
693 09-11-2020 10:15:00 9.5 C 8.83 g/m*3 9.5 C 0 km/h
694 09-11-2020 10:20:00 9.6 C 8.89 g/m*3 9.6 C 0 km/h
695 09-11-2020 10:25:00 9.6 C 8.89 g/m*3 9.6 C 0 km/h
696 09-11-2020 10:30:00 9.7 C 8.94 g/m*3 9.7 C 0 km/h
697 09-11-2020 10:35:00 9.8 C 9 g/m*3 9.8 C 0 km/h
698 09-11-2020 10:40:00 9.9 C 9.15 g/m*3 9.9 C 0 km/h
699 09-11-2020 10:45:00 10.1 C 9.17 g/m*3 10.1 C 0 km/h
700 09-11-2020 10:50:00 10.3 C 9.39 g/m*3 10.3 C 0 km/h
Sensor: Nr:Datum:Temp:Abs-Feuchte:Windchill:Wind:
Aussen-T/F 701 09-11-2020 10:55:00 10.5 C 9.5 g/m*3 10.5 C 0 km/h
702 09-11-2020 11:00:00 10.6 C 9.57 g/m*3 10.6 C 0 km/h
703 09-11-2020 11:05:00 10.6 C 9.57 g/m*3 10.6 C 0 km/h
704 09-11-2020 11:10:00 10.7 C 9.63 g/m*3 10.7 C 0 km/h
705 09-11-2020 11:15:00 10.8 C 9.69 g/m*3 10.8 C 0 km/h
706 09-11-2020 11:20:00 10.9 C 9.75 g/m*3 10.9 C 0 km/h
707 09-11-2020 11:25:00 11 C 9.81 g/m*3 11 C 0 km/h
708 09-11-2020 11:30:00 11.1 C 9.87 g/m*3 11.1 C 0 km/h
709 09-11-2020 11:35:00 11.2 C 9.93 g/m*3 11.2 C 0 km/h
710 09-11-2020 11:40:00 11.2 C 9.93 g/m*3 11.2 C 0 km/h
711 09-11-2020 11:45:00 11.3 C 10 g/m*3 11.3 C 0 km/h
712 09-11-2020 11:50:00 11.3 C 10 g/m*3 11.3 C 0 km/h
713 09-11-2020 11:55:00 11.4 C 10.06 g/m*3 11.4 C 0 km/h
714 09-11-2020 12:00:00 11.4 C 10.06 g/m*3 11.4 C 0 km/h
715 09-11-2020 12:05:00 11.4 C 10.06 g/m*3 11.4 C 0 km/h
716 09-11-2020 12:10:00 11.5 C 10.02 g/m*3 11.5 C 0 km/h
717 09-11-2020 12:15:00 11.5 C 10.02 g/m*3 11.5 C 0 km/h
718 09-11-2020 12:20:00 11.6 C 10.08 g/m*3 11.6 C 0 km/h
719 09-11-2020 12:25:00 11.6 C 10.19 g/m*3 11.6 C 0 km/h
720 09-11-2020 12:30:00 11.7 C 10.25 g/m*3 11.7 C 0 km/h
721 09-11-2020 12:35:00 11.8 C 10.31 g/m*3 11.8 C 0 km/h
722 09-11-2020 12:40:00 11.9 C 10.38 g/m*3 11.9 C 0 km/h
723 09-11-2020 12:45:00 12.2 C 10.58 g/m*3 12.2 C 0 km/h
724 09-11-2020 12:50:00 12.4 C 10.71 g/m*3 12.4 C 0 km/h
725 09-11-2020 12:55:00 12.6 C 10.84 g/m*3 12.6 C 0 km/h
Sensor: Nr:Datum:Temp:Abs-Feuchte:Windchill:Wind:
Aussen-T/F 726 09-11-2020 13:00:00 12.7 C 10.91 g/m*3 12.7 C 0 km/h
727 09-11-2020 13:05:00 12.8 C 10.98 g/m*3 12.8 C 0 km/h
728 09-11-2020 13:10:00 12.8 C 10.98 g/m*3 12.8 C 0 km/h
729 09-11-2020 13:15:00 12.9 C 11.05 g/m*3 12.9 C 0 km/h
730 09-11-2020 13:20:00 13.1 C 11.18 g/m*3 13.1 C 0 km/h
731 09-11-2020 13:25:00 13.1 C 11.18 g/m*3 13.1 C 0 km/h
732 09-11-2020 13:30:00 13.2 C 11.14 g/m*3 13.2 C 0 km/h
733 09-11-2020 13:35:00 13.1 C 11.07 g/m*3 13.1 C 0 km/h
734 09-11-2020 13:40:00 13.2 C 11.14 g/m*3 13.2 C 0 km/h
735 09-11-2020 13:45:00 13.3 C 11.09 g/m*3 13.3 C 0 km/h
736 09-11-2020 13:50:00 13.4 C 11.16 g/m*3 13.4 C 0 km/h
737 09-11-2020 13:55:00 13.4 C 10.93 g/m*3 13.4 C 0 km/h
738 09-11-2020 14:00:00 13.6 C 11.06 g/m*3 13.6 C 0 km/h
739 09-11-2020 14:05:00 13.6 C 10.95 g/m*3 13.6 C 3.2 km/h
740 09-11-2020 14:10:00 13.6 C 10.83 g/m*3 13.6 C 3.2 km/h
741 09-11-2020 14:15:00 13.7 C 10.89 g/m*3 13.7 C 0 km/h
742 09-11-2020 14:20:00 13.7 C 10.89 g/m*3 13.7 C 0 km/h
743 09-11-2020 14:25:00 13.8 C 10.96 g/m*3 13.8 C 0 km/h
744 09-11-2020 14:30:00 13.8 C 10.96 g/m*3 13.8 C 0 km/h
745 09-11-2020 14:35:00 13.7 C 10.89 g/m*3 13.7 C 0 km/h
746 09-11-2020 14:40:00 13.7 C 10.89 g/m*3 13.7 C 0 km/h
747 09-11-2020 14:45:00 13.7 C 11.01 g/m*3 13.7 C 0 km/h
748 09-11-2020 14:50:00 13.6 C 10.95 g/m*3 13.6 C 0 km/h
749 09-11-2020 14:55:00 13.6 C 10.95 g/m*3 13.6 C 0 km/h
750 09-11-2020 15:00:00 13.6 C 10.95 g/m*3 13.6 C 0 km/h
Sensor: Nr:Datum:Temp:Abs-Feuchte:Windchill:Wind:
Aussen-T/F 751 09-11-2020 15:05:00 13.5 C 10.88 g/m*3 13.5 C 1.6 km/h
752 09-11-2020 15:10:00 13.4 C 10.81 g/m*3 13.4 C 0 km/h
753 09-11-2020 15:15:00 13.3 C 10.74 g/m*3 13.3 C 1.6 km/h
754 09-11-2020 15:20:00 13.3 C 10.74 g/m*3 13.3 C 0 km/h
755 09-11-2020 15:25:00 13.2 C 10.68 g/m*3 13.2 C 0 km/h
756 09-11-2020 15:30:00 13.2 C 10.68 g/m*3 13.2 C 0 km/h
757 09-11-2020 15:35:00 13.1 C 10.61 g/m*3 13.1 C 0 km/h
758 09-11-2020 15:40:00 13.1 C 10.61 g/m*3 13.1 C 0 km/h
759 09-11-2020 15:45:00 13 C 10.55 g/m*3 13 C 0 km/h
760 09-11-2020 15:50:00 13 C 10.55 g/m*3 13 C 0 km/h
761 09-11-2020 15:55:00 12.9 C 10.48 g/m*3 12.9 C 0 km/h
762 09-11-2020 16:00:00 12.8 C 10.42 g/m*3 12.8 C 0 km/h
763 09-11-2020 16:05:00 12.8 C 10.42 g/m*3 12.8 C 0 km/h
764 09-11-2020 16:10:00 12.7 C 10.35 g/m*3 12.7 C 0 km/h
765 09-11-2020 16:15:00 12.7 C 10.46 g/m*3 12.7 C 0 km/h
766 09-11-2020 16:20:00 12.6 C 10.29 g/m*3 12.6 C 0 km/h
767 09-11-2020 16:25:00 12.5 C 10.33 g/m*3 12.5 C 0 km/h
768 09-11-2020 16:30:00 12.4 C 10.27 g/m*3 12.4 C 0 km/h
769 09-11-2020 16:35:00 12.4 C 10.27 g/m*3 12.4 C 0 km/h
770 09-11-2020 16:40:00 12.3 C 10.21 g/m*3 12.3 C 0 km/h
771 09-11-2020 16:45:00 12.2 C 10.14 g/m*3 12.2 C 0 km/h
772 09-11-2020 16:50:00 12.2 C 10.14 g/m*3 12.2 C 0 km/h
773 09-11-2020 16:55:00 12.2 C 10.14 g/m*3 12.2 C 3.2 km/h
774 09-11-2020 17:00:00 12.1 C 10.08 g/m*3 12.1 C 1.6 km/h
775 09-11-2020 17:05:00 11.9 C 9.96 g/m*3 11.9 C 1.6 km/h
Sensor: Nr:Datum:Temp:Abs-Feuchte:Windchill:Wind:
Aussen-T/F 776 09-11-2020 17:10:00 11.8 C 9.89 g/m*3 11.8 C 3.2 km/h
777 09-11-2020 17:15:00 11.7 C 9.83 g/m*3 11.7 C 3.2 km/h
778 09-11-2020 17:20:00 11.6 C 9.77 g/m*3 11.6 C 3.2 km/h
779 09-11-2020 17:25:00 11.6 C 9.77 g/m*3 11.6 C 3.2 km/h
780 09-11-2020 17:30:00 11.4 C 9.65 g/m*3 11.4 C 3.2 km/h
781 09-11-2020 17:35:00 11.4 C 9.65 g/m*3 11.4 C 3.2 km/h
782 09-11-2020 17:40:00 11.3 C 9.59 g/m*3 11.3 C 1.6 km/h
783 09-11-2020 17:45:00 11.2 C 9.53 g/m*3 11.2 C 3.2 km/h
784 09-11-2020 17:50:00 11.1 C 9.57 g/m*3 11.1 C 3.2 km/h
785 09-11-2020 17:55:00 11.1 C 9.57 g/m*3 11.1 C 3.2 km/h
786 09-11-2020 18:00:00 11 C 9.51 g/m*3 11 C 0 km/h
787 09-11-2020 18:05:00 10.8 C 9.29 g/m*3 10.8 C 3.2 km/h
788 09-11-2020 18:10:00 10.7 C 9.33 g/m*3 10.7 C 0 km/h
789 09-11-2020 18:15:00 10.6 C 9.27 g/m*3 10.6 C 0 km/h
790 09-11-2020 18:20:00 10.4 C 9.16 g/m*3 10.4 C 0 km/h
791 09-11-2020 18:25:00 10.4 C 9.16 g/m*3 10.4 C 3.2 km/h
792 09-11-2020 18:30:00 10.4 C 9.16 g/m*3 10.4 C 3.2 km/h
793 09-11-2020 18:35:00 10.4 C 9.16 g/m*3 10.4 C 0 km/h
794 09-11-2020 18:40:00 10.3 C 9.1 g/m*3 10.3 C 0 km/h
795 09-11-2020 18:45:00 10.3 C 9.1 g/m*3 10.3 C 0 km/h
796 09-11-2020 18:50:00 10.2 C 9.04 g/m*3 10.2 C 0 km/h
797 09-11-2020 18:55:00 10.1 C 8.98 g/m*3 10.1 C 0 km/h
798 09-11-2020 19:00:00 10 C 8.93 g/m*3 10 C 0 km/h
799 09-11-2020 19:05:00 9.9 C 8.87 g/m*3 9.9 C 0 km/h
800 09-11-2020 19:10:00 9.8 C 8.81 g/m*3 9.8 C 0 km/h
Sensor: Nr:Datum:Temp:Abs-Feuchte:Windchill:Wind:
Aussen-T/F 801 09-11-2020 19:15:00 9.8 C 8.81 g/m*3 9.8 C 0 km/h
802 09-11-2020 19:20:00 9.7 C 8.85 g/m*3 9.7 C 0 km/h
803 09-11-2020 19:25:00 9.7 C 8.76 g/m*3 9.7 C 0 km/h
804 09-11-2020 19:30:00 9.6 C 8.7 g/m*3 9.6 C 0 km/h
805 09-11-2020 19:35:00 9.6 C 8.79 g/m*3 9.6 C 0 km/h
806 09-11-2020 19:40:00 9.6 C 8.79 g/m*3 9.6 C 0 km/h
807 09-11-2020 19:45:00 9.5 C 8.74 g/m*3 9.5 C 0 km/h
808 09-11-2020 19:50:00 9.4 C 8.68 g/m*3 9.4 C 0 km/h
809 09-11-2020 19:55:00 9.4 C 8.68 g/m*3 9.4 C 0 km/h
810 09-11-2020 20:00:00 9.3 C 8.63 g/m*3 9.3 C 0 km/h
811 09-11-2020 20:05:00 9.3 C 8.63 g/m*3 9.3 C 0 km/h
812 09-11-2020 20:10:00 9.3 C 8.63 g/m*3 9.3 C 0 km/h
813 09-11-2020 20:15:00 9.3 C 8.63 g/m*3 9.3 C 0 km/h
814 09-11-2020 20:20:00 9.2 C 8.57 g/m*3 9.2 C 0 km/h
815 09-11-2020 20:25:00 9.1 C 8.52 g/m*3 9.1 C 1.6 km/h
816 09-11-2020 20:30:00 9.1 C 8.52 g/m*3 9.1 C 3.2 km/h
817 09-11-2020 20:35:00 9 C 8.46 g/m*3 9 C 0 km/h
818 09-11-2020 20:40:00 8.9 C 8.41 g/m*3 8.9 C 0 km/h
819 09-11-2020 20:45:00 8.9 C 8.41 g/m*3 8.9 C 0 km/h
820 09-11-2020 20:50:00 8.8 C 8.36 g/m*3 8.8 C 0 km/h
821 09-11-2020 20:55:00 8.8 C 8.36 g/m*3 8.8 C 0 km/h
822 09-11-2020 21:00:00 8.7 C 8.3 g/m*3 8.7 C 0 km/h
823 09-11-2020 21:05:00 8.6 C 8.25 g/m*3 8.6 C 0 km/h
824 09-11-2020 21:10:00 8.5 C 8.2 g/m*3 8.5 C 0 km/h
825 09-11-2020 21:15:00 8.4 C 8.14 g/m*3 8.4 C 0 km/h
Sensor: Nr:Datum:Temp:Abs-Feuchte:Windchill:Wind:
Aussen-T/F 826 09-11-2020 21:20:00 8.3 C 8.09 g/m*3 8.3 C 0 km/h
827 09-11-2020 21:25:00 8.2 C 8.04 g/m*3 8.2 C 0 km/h
828 09-11-2020 21:30:00 8.1 C 7.99 g/m*3 8.1 C 0 km/h
829 09-11-2020 21:35:00 8 C 7.94 g/m*3 8 C 0 km/h
830 09-11-2020 21:40:00 7.9 C 7.89 g/m*3 7.9 C 0 km/h
831 09-11-2020 21:45:00 7.8 C 7.83 g/m*3 7.8 C 0 km/h
832 09-11-2020 21:50:00 7.8 C 7.83 g/m*3 7.8 C 0 km/h
833 09-11-2020 21:55:00 7.7 C 7.78 g/m*3 7.7 C 0 km/h
834 09-11-2020 22:00:00 7.6 C 7.73 g/m*3 7.6 C 0 km/h
835 09-11-2020 22:05:00 7.5 C 7.68 g/m*3 7.5 C 0 km/h
836 09-11-2020 22:10:00 7.4 C 7.63 g/m*3 7.4 C 0 km/h
837 09-11-2020 22:15:00 7.3 C 7.58 g/m*3 7.3 C 0 km/h
838 09-11-2020 22:20:00 7.3 C 7.58 g/m*3 7.3 C 0 km/h
839 09-11-2020 22:25:00 7.2 C 7.54 g/m*3 7.2 C 0 km/h
840 09-11-2020 22:30:00 7.2 C 7.54 g/m*3 7.2 C 0 km/h
841 09-11-2020 22:35:00 7.1 C 7.49 g/m*3 7.1 C 0 km/h
842 09-11-2020 22:40:00 7 C 7.44 g/m*3 7 C 0 km/h
843 09-11-2020 22:45:00 7.1 C 7.49 g/m*3 7.1 C 0 km/h
844 09-11-2020 22:50:00 7 C 7.44 g/m*3 7 C 0 km/h
845 09-11-2020 22:55:00 7 C 7.44 g/m*3 7 C 0 km/h
846 09-11-2020 23:00:00 6.9 C 7.39 g/m*3 6.9 C 0 km/h
847 09-11-2020 23:05:00 6.9 C 7.39 g/m*3 6.9 C 0 km/h
848 09-11-2020 23:10:00 6.8 C 7.34 g/m*3 6.8 C 0 km/h
849 09-11-2020 23:15:00 6.7 C 7.29 g/m*3 6.7 C 0 km/h
850 09-11-2020 23:20:00 6.7 C 7.29 g/m*3 6.7 C 0 km/h
Sensor: Nr:Datum:Temp:Abs-Feuchte:Windchill:Wind:
Aussen-T/F 851 09-11-2020 23:25:00 6.7 C 7.29 g/m*3 6.7 C 0 km/h
852 09-11-2020 23:30:00 6.7 C 7.29 g/m*3 6.7 C 0 km/h
853 09-11-2020 23:35:00 6.7 C 7.29 g/m*3 6.7 C 0 km/h
854 09-11-2020 23:40:00 6.6 C 7.25 g/m*3 6.6 C 0 km/h
855 09-11-2020 23:45:00 6.4 C 7.15 g/m*3 6.4 C 0 km/h
856 09-11-2020 23:50:00 6.3 C 7.11 g/m*3 6.3 C 0 km/h
857 09-11-2020 23:55:00 6.2 C 7.06 g/m*3 6.2 C 0 km/h

Legende:
   Min
   Max


Maximal/Minimal-Werte vom 07.11.2020 - 09.11.2020

Sensor Min Max Avg
Temp
(Aussen-T/F)
0.3 °C
07-11-2020  03:25:00
13.8 °C
09-11-2020  14:25:00
7.07 °C
Abs-Feuchte
(Aussen-T/F)
4.78 g/m*3
07-11-2020  02:15:00
11.18 g/m*3
09-11-2020  13:20:00
7.61 g/m*3
Windchill
(Aussen-T/F)
0.3 C
07-11-2020  03:25:00
13.8 C
09-11-2020  14:25:00
7.06 C

Die Daten stammen von einer Davis Vantage Pro 2 Wetter-Station und werden unter Linux mit der Software wview2wettercgi und aufbereitet. Alle Angaben erfolgen ohne Gewähr für ihre Vollständigkeit oder Richtigkeit.
Kontakt: Rainer Krienke krienke@uni-koblenz.de . Meine Webseiten an der Uni Koblenz oder privat.
Version: $Revision: 0.78 $